sensor_id;sensor_type;location;lat;lon;timestamp;P1;durP1;ratioP1;P2;durP2;ratioP2
67571;SDS011;54397;47.506;19.158;2023-01-08T00:01:39;48.17;;;25.50;;
67571;SDS011;54397;47.506;19.158;2023-01-08T00:05:01;57.72;;;25.92;;
67571;SDS011;54397;47.506;19.158;2023-01-08T00:08:25;50.57;;;25.00;;
67571;SDS011;54397;47.506;19.158;2023-01-08T00:11:49;46.93;;;26.27;;
67571;SDS011;54397;47.506;19.158;2023-01-08T00:15:13;52.50;;;24.93;;
67571;SDS011;54397;47.506;19.158;2023-01-08T00:18:35;50.30;;;25.40;;
67571;SDS011;54397;47.506;19.158;2023-01-08T00:21:56;53.93;;;25.93;;
67571;SDS011;54397;47.506;19.158;2023-01-08T00:25:18;49.57;;;25.67;;
67571;SDS011;54397;47.506;19.158;2023-01-08T00:28:40;44.97;;;25.07;;
67571;SDS011;54397;47.506;19.158;2023-01-08T00:32:03;44.05;;;24.23;;
67571;SDS011;54397;47.506;19.158;2023-01-08T00:35:24;43.33;;;23.70;;
67571;SDS011;54397;47.506;19.158;2023-01-08T00:38:46;45.00;;;24.03;;
67571;SDS011;54397;47.506;19.158;2023-01-08T00:42:08;44.10;;;24.07;;
67571;SDS011;54397;47.506;19.158;2023-01-08T00:45:30;41.33;;;23.50;;
67571;SDS011;54397;47.506;19.158;2023-01-08T00:48:51;44.07;;;24.33;;
67571;SDS011;54397;47.506;19.158;2023-01-08T00:52:13;48.47;;;24.33;;
67571;SDS011;54397;47.506;19.158;2023-01-08T00:55:35;42.43;;;23.60;;
67571;SDS011;54397;47.506;19.158;2023-01-08T00:58:56;41.40;;;23.17;;
67571;SDS011;54397;47.506;19.158;2023-01-08T01:02:20;42.40;;;24.03;;
67571;SDS011;54397;47.506;19.158;2023-01-08T01:05:44;41.67;;;23.67;;
67571;SDS011;54397;47.506;19.158;2023-01-08T01:09:10;39.90;;;23.25;;
67571;SDS011;54397;47.506;19.158;2023-01-08T01:12:32;41.00;;;23.60;;
67571;SDS011;54397;47.506;19.158;2023-01-08T01:15:58;47.47;;;24.30;;
67571;SDS011;54397;47.506;19.158;2023-01-08T01:19:24;40.63;;;22.63;;
67571;SDS011;54397;47.506;19.158;2023-01-08T01:22:48;42.97;;;22.47;;
67571;SDS011;54397;47.506;19.158;2023-01-08T01:26:17;41.93;;;23.93;;
67571;SDS011;54397;47.506;19.158;2023-01-08T01:29:41;42.20;;;23.70;;
67571;SDS011;54397;47.506;19.158;2023-01-08T01:33:05;41.10;;;22.53;;
67571;SDS011;54397;47.506;19.158;2023-01-08T01:36:26;40.20;;;23.40;;
67571;SDS011;54397;47.506;19.158;2023-01-08T01:39:51;39.13;;;22.70;;
67571;SDS011;54397;47.506;19.158;2023-01-08T01:43:31;40.08;;;23.15;;
67571;SDS011;54397;47.506;19.158;2023-01-08T01:46:54;41.00;;;23.55;;
67571;SDS011;54397;47.506;19.158;2023-01-08T01:50:17;48.10;;;23.63;;
67571;SDS011;54397;47.506;19.158;2023-01-08T01:53:42;38.17;;;23.37;;
67571;SDS011;54397;47.506;19.158;2023-01-08T01:57:07;39.67;;;22.17;;
67571;SDS011;54397;47.506;19.158;2023-01-08T02:00:31;41.30;;;22.90;;
67571;SDS011;54397;47.506;19.158;2023-01-08T02:03:53;43.00;;;23.47;;
67571;SDS011;54397;47.506;19.158;2023-01-08T02:11:15;39.70;;;22.63;;
67571;SDS011;54397;47.506;19.158;2023-01-08T02:22:27;36.80;;;21.77;;
67571;SDS011;54397;47.506;19.158;2023-01-08T02:29:55;34.60;;;21.10;;
67571;SDS011;54397;47.506;19.158;2023-01-08T02:33:18;36.53;;;23.07;;
67571;SDS011;54397;47.506;19.158;2023-01-08T02:36:40;39.90;;;22.23;;
67571;SDS011;54397;47.506;19.158;2023-01-08T02:43:56;38.63;;;22.53;;
67571;SDS011;54397;47.506;19.158;2023-01-08T02:51:18;36.97;;;22.27;;
67571;SDS011;54397;47.506;19.158;2023-01-08T02:54:47;42.20;;;23.37;;
67571;SDS011;54397;47.506;19.158;2023-01-08T02:58:11;38.07;;;22.07;;
67571;SDS011;54397;47.506;19.158;2023-01-08T03:01:36;36.77;;;23.07;;
67571;SDS011;54397;47.506;19.158;2023-01-08T03:05:02;36.00;;;21.43;;
67571;SDS011;54397;47.506;19.158;2023-01-08T03:08:35;37.37;;;22.40;;
67571;SDS011;54397;47.506;19.158;2023-01-08T03:12:04;37.35;;;21.85;;
67571;SDS011;54397;47.506;19.158;2023-01-08T03:15:33;39.37;;;22.37;;
67571;SDS011;54397;47.506;19.158;2023-01-08T03:19:22;36.03;;;21.00;;
67571;SDS011;54397;47.506;19.158;2023-01-08T03:22:45;36.47;;;21.57;;
67571;SDS011;54397;47.506;19.158;2023-01-08T03:26:14;36.37;;;22.27;;
67571;SDS011;54397;47.506;19.158;2023-01-08T03:29:40;39.50;;;23.00;;
67571;SDS011;54397;47.506;19.158;2023-01-08T03:33:04;33.77;;;21.90;;
67571;SDS011;54397;47.506;19.158;2023-01-08T03:36:29;33.35;;;21.63;;
67571;SDS011;54397;47.506;19.158;2023-01-08T03:39:56;39.20;;;21.20;;
67571;SDS011;54397;47.506;19.158;2023-01-08T03:43:25;33.63;;;21.07;;
67571;SDS011;54397;47.506;19.158;2023-01-08T03:46:49;40.20;;;22.17;;
67571;SDS011;54397;47.506;19.158;2023-01-08T03:50:15;35.30;;;22.43;;
67571;SDS011;54397;47.506;19.158;2023-01-08T03:53:41;37.60;;;21.20;;
67571;SDS011;54397;47.506;19.158;2023-01-08T03:57:07;36.27;;;21.60;;
67571;SDS011;54397;47.506;19.158;2023-01-08T04:00:29;36.23;;;22.30;;
67571;SDS011;54397;47.506;19.158;2023-01-08T04:03:52;33.13;;;21.23;;
67571;SDS011;54397;47.506;19.158;2023-01-08T04:07:14;37.67;;;22.40;;
67571;SDS011;54397;47.506;19.158;2023-01-08T04:10:38;38.57;;;22.03;;
67571;SDS011;54397;47.506;19.158;2023-01-08T04:14:02;38.83;;;22.63;;
67571;SDS011;54397;47.506;19.158;2023-01-08T04:17:26;40.07;;;22.80;;
67571;SDS011;54397;47.506;19.158;2023-01-08T04:20:50;40.20;;;22.73;;
67571;SDS011;54397;47.506;19.158;2023-01-08T04:24:15;34.33;;;21.43;;
67571;SDS011;54397;47.506;19.158;2023-01-08T04:27:37;34.67;;;20.70;;
67571;SDS011;54397;47.506;19.158;2023-01-08T04:30:58;39.53;;;22.03;;
67571;SDS011;54397;47.506;19.158;2023-01-08T04:34:29;36.75;;;20.73;;
67571;SDS011;54397;47.506;19.158;2023-01-08T04:37:55;35.40;;;21.07;;
67571;SDS011;54397;47.506;19.158;2023-01-08T04:41:17;36.90;;;21.37;;
67571;SDS011;54397;47.506;19.158;2023-01-08T04:44:38;36.67;;;20.70;;
67571;SDS011;54397;47.506;19.158;2023-01-08T04:48:03;39.03;;;21.60;;
67571;SDS011;54397;47.506;19.158;2023-01-08T04:51:27;39.50;;;20.80;;
67571;SDS011;54397;47.506;19.158;2023-01-08T04:54:48;41.73;;;22.60;;
67571;SDS011;54397;47.506;19.158;2023-01-08T04:58:10;30.80;;;20.17;;
67571;SDS011;54397;47.506;19.158;2023-01-08T05:01:32;38.53;;;21.70;;
67571;SDS011;54397;47.506;19.158;2023-01-08T05:04:56;32.77;;;20.83;;
67571;SDS011;54397;47.506;19.158;2023-01-08T05:08:18;35.00;;;19.90;;
67571;SDS011;54397;47.506;19.158;2023-01-08T05:11:39;32.97;;;20.47;;
67571;SDS011;54397;47.506;19.158;2023-01-08T05:15:04;33.00;;;20.00;;
67571;SDS011;54397;47.506;19.158;2023-01-08T05:18:26;34.07;;;20.20;;
67571;SDS011;54397;47.506;19.158;2023-01-08T05:21:49;34.50;;;20.57;;
67571;SDS011;54397;47.506;19.158;2023-01-08T05:25:13;34.60;;;20.53;;
67571;SDS011;54397;47.506;19.158;2023-01-08T05:28:35;36.67;;;20.10;;
67571;SDS011;54397;47.506;19.158;2023-01-08T05:31:56;38.17;;;21.57;;
67571;SDS011;54397;47.506;19.158;2023-01-08T05:35:18;42.20;;;22.63;;
67571;SDS011;54397;47.506;19.158;2023-01-08T05:38:42;36.60;;;22.00;;
67571;SDS011;54397;47.506;19.158;2023-01-08T05:42:06;34.67;;;20.33;;
67571;SDS011;54397;47.506;19.158;2023-01-08T05:45:28;35.42;;;22.08;;
67571;SDS011;54397;47.506;19.158;2023-01-08T05:48:49;35.47;;;20.67;;
67571;SDS011;54397;47.506;19.158;2023-01-08T05:52:11;36.73;;;21.30;;
67571;SDS011;54397;47.506;19.158;2023-01-08T05:55:33;37.03;;;21.87;;
67571;SDS011;54397;47.506;19.158;2023-01-08T05:58:54;36.30;;;19.83;;
67571;SDS011;54397;47.506;19.158;2023-01-08T06:02:16;34.30;;;20.93;;
67571;SDS011;54397;47.506;19.158;2023-01-08T06:05:43;31.70;;;20.10;;
67571;SDS011;54397;47.506;19.158;2023-01-08T06:09:04;33.53;;;19.40;;
67571;SDS011;54397;47.506;19.158;2023-01-08T06:12:26;35.53;;;20.80;;
67571;SDS011;54397;47.506;19.158;2023-01-08T06:15:50;32.27;;;20.60;;
67571;SDS011;54397;47.506;19.158;2023-01-08T06:19:13;36.00;;;20.50;;
67571;SDS011;54397;47.506;19.158;2023-01-08T06:22:36;33.73;;;20.23;;
67571;SDS011;54397;47.506;19.158;2023-01-08T06:26:00;31.47;;;20.33;;
67571;SDS011;54397;47.506;19.158;2023-01-08T06:29:26;33.97;;;20.00;;
67571;SDS011;54397;47.506;19.158;2023-01-08T06:32:54;35.70;;;21.03;;
67571;SDS011;54397;47.506;19.158;2023-01-08T06:36:16;35.53;;;21.00;;
67571;SDS011;54397;47.506;19.158;2023-01-08T06:39:38;36.97;;;21.20;;
67571;SDS011;54397;47.506;19.158;2023-01-08T06:43:02;34.23;;;20.80;;
67571;SDS011;54397;47.506;19.158;2023-01-08T06:46:25;32.53;;;20.70;;
67571;SDS011;54397;47.506;19.158;2023-01-08T06:49:46;36.43;;;22.87;;
67571;SDS011;54397;47.506;19.158;2023-01-08T06:53:08;30.60;;;20.03;;
67571;SDS011;54397;47.506;19.158;2023-01-08T06:56:30;31.33;;;20.00;;
67571;SDS011;54397;47.506;19.158;2023-01-08T06:59:52;35.27;;;21.63;;
67571;SDS011;54397;47.506;19.158;2023-01-08T07:03:13;35.83;;;21.43;;
67571;SDS011;54397;47.506;19.158;2023-01-08T07:06:40;45.70;;;21.60;;
67571;SDS011;54397;47.506;19.158;2023-01-08T07:10:04;31.27;;;21.17;;
67571;SDS011;54397;47.506;19.158;2023-01-08T07:13:25;35.07;;;21.53;;
67571;SDS011;54397;47.506;19.158;2023-01-08T07:16:47;34.93;;;20.90;;
67571;SDS011;54397;47.506;19.158;2023-01-08T07:20:09;31.87;;;22.00;;
67571;SDS011;54397;47.506;19.158;2023-01-08T07:23:32;39.40;;;23.10;;
67571;SDS011;54397;47.506;19.158;2023-01-08T07:26:54;36.00;;;21.63;;
67571;SDS011;54397;47.506;19.158;2023-01-08T07:30:15;38.03;;;22.90;;
67571;SDS011;54397;47.506;19.158;2023-01-08T07:33:50;34.13;;;21.77;;
67571;SDS011;54397;47.506;19.158;2023-01-08T07:37:11;33.97;;;21.20;;
67571;SDS011;54397;47.506;19.158;2023-01-08T07:40:36;35.37;;;21.37;;
67571;SDS011;54397;47.506;19.158;2023-01-08T07:44:00;37.33;;;23.23;;
67571;SDS011;54397;47.506;19.158;2023-01-08T07:47:22;39.83;;;24.13;;
67571;SDS011;54397;47.506;19.158;2023-01-08T07:50:43;38.93;;;23.33;;
67571;SDS011;54397;47.506;19.158;2023-01-08T07:54:08;33.93;;;22.03;;
67571;SDS011;54397;47.506;19.158;2023-01-08T07:57:29;36.50;;;22.87;;
67571;SDS011;54397;47.506;19.158;2023-01-08T08:00:51;40.60;;;24.57;;
67571;SDS011;54397;47.506;19.158;2023-01-08T08:04:13;35.23;;;21.43;;
67571;SDS011;54397;47.506;19.158;2023-01-08T08:07:36;33.73;;;22.67;;
67571;SDS011;54397;47.506;19.158;2023-01-08T08:11:00;35.87;;;21.97;;
67571;SDS011;54397;47.506;19.158;2023-01-08T08:14:24;35.10;;;22.73;;
67571;SDS011;54397;47.506;19.158;2023-01-08T08:17:46;37.83;;;22.90;;
67571;SDS011;54397;47.506;19.158;2023-01-08T08:21:10;33.23;;;19.87;;
67571;SDS011;54397;47.506;19.158;2023-01-08T08:24:34;32.03;;;20.47;;
67571;SDS011;54397;47.506;19.158;2023-01-08T08:27:59;34.03;;;21.47;;
67571;SDS011;54397;47.506;19.158;2023-01-08T08:31:21;33.87;;;20.90;;
67571;SDS011;54397;47.506;19.158;2023-01-08T08:34:45;32.87;;;20.03;;
67571;SDS011;54397;47.506;19.158;2023-01-08T08:38:07;31.53;;;19.03;;
67571;SDS011;54397;47.506;19.158;2023-01-08T08:41:32;30.13;;;19.50;;
67571;SDS011;54397;47.506;19.158;2023-01-08T08:44:56;31.70;;;19.63;;
67571;SDS011;54397;47.506;19.158;2023-01-08T08:48:19;32.27;;;20.47;;
67571;SDS011;54397;47.506;19.158;2023-01-08T08:51:43;40.97;;;23.40;;
67571;SDS011;54397;47.506;19.158;2023-01-08T08:55:05;39.67;;;21.97;;
67571;SDS011;54397;47.506;19.158;2023-01-08T08:58:27;49.30;;;28.50;;
67571;SDS011;54397;47.506;19.158;2023-01-08T09:01:49;45.57;;;25.97;;
67571;SDS011;54397;47.506;19.158;2023-01-08T09:05:13;41.53;;;24.17;;
67571;SDS011;54397;47.506;19.158;2023-01-08T09:08:35;34.90;;;20.97;;
67571;SDS011;54397;47.506;19.158;2023-01-08T09:11:59;33.40;;;21.17;;
67571;SDS011;54397;47.506;19.158;2023-01-08T09:15:21;37.63;;;23.20;;
67571;SDS011;54397;47.506;19.158;2023-01-08T09:18:45;29.80;;;19.20;;
67571;SDS011;54397;47.506;19.158;2023-01-08T09:22:07;28.90;;;18.00;;
67571;SDS011;54397;47.506;19.158;2023-01-08T09:25:34;27.83;;;18.77;;
67571;SDS011;54397;47.506;19.158;2023-01-08T09:28:56;30.93;;;19.27;;
67571;SDS011;54397;47.506;19.158;2023-01-08T09:32:21;30.77;;;19.73;;
67571;SDS011;54397;47.506;19.158;2023-01-08T09:35:45;30.97;;;19.20;;
67571;SDS011;54397;47.506;19.158;2023-01-08T09:39:09;29.47;;;18.80;;
67571;SDS011;54397;47.506;19.158;2023-01-08T09:42:33;30.23;;;18.93;;
67571;SDS011;54397;47.506;19.158;2023-01-08T09:45:56;45.30;;;27.13;;
67571;SDS011;54397;47.506;19.158;2023-01-08T09:49:32;38.77;;;22.63;;
67571;SDS011;54397;47.506;19.158;2023-01-08T09:52:59;29.47;;;19.23;;
67571;SDS011;54397;47.506;19.158;2023-01-08T09:56:24;34.40;;;19.55;;
67571;SDS011;54397;47.506;19.158;2023-01-08T09:59:46;31.73;;;19.03;;
67571;SDS011;54397;47.506;19.158;2023-01-08T10:03:09;32.13;;;18.70;;
67571;SDS011;54397;47.506;19.158;2023-01-08T10:06:32;26.05;;;17.50;;
67571;SDS011;54397;47.506;19.158;2023-01-08T10:09:54;26.53;;;17.40;;
67571;SDS011;54397;47.506;19.158;2023-01-08T10:13:19;24.13;;;15.55;;
67571;SDS011;54397;47.506;19.158;2023-01-08T10:16:40;23.23;;;15.52;;
67571;SDS011;54397;47.506;19.158;2023-01-08T10:23:47;25.08;;;16.30;;
67571;SDS011;54397;47.506;19.158;2023-01-08T10:27:17;21.00;;;15.93;;
67571;SDS011;54397;47.506;19.158;2023-01-08T10:30:40;22.50;;;16.50;;
67571;SDS011;54397;47.506;19.158;2023-01-08T10:34:07;26.30;;;18.63;;
67571;SDS011;54397;47.506;19.158;2023-01-08T10:37:33;24.90;;;17.70;;
67571;SDS011;54397;47.506;19.158;2023-01-08T10:41:00;22.75;;;17.08;;
67571;SDS011;54397;47.506;19.158;2023-01-08T10:44:26;23.60;;;17.17;;
67571;SDS011;54397;47.506;19.158;2023-01-08T10:47:51;27.35;;;18.42;;
